sim
Sign-in with your pilot id or email,
or register
Callsign
Passwort

Schedule Details

Flight Number: DLH2065
Departure: Hamburg Airport (EDDH) at 10:15
Arrival: Munich Airport (EDDM) at 11:30
Route: Lufthansa Passenger Schedule. Enter filed route here before submitting Pirep.

Weather Information
Getting current METAR information for EDDH 210520Z 07003KT 9999 0600NW R05/P2000N R15/0250N BCFG NSC 08/08 Q1019 NOSIG
Getting current METAR information for EDDM 210520Z VRB01KT 9999 1500NE R08L/0650N BCFG NSC 07/07 Q1016 NOSIG

Schedule Frequency

Route Map